KERI/ERI METAR and TAF weather

Enter ICAO airport designator
Station Type Date Time Source
KERI METAR 2020/09/19 17:51 UTC NOAA

KERI 191751Z 02010KT 10SM CLR 17/02 A3040 RMK AO2 SLP297 T01670022 10167 20078 58005


Station Type Date Time Source
KERI Decoded METAR 2020/09/19 17:51 UTC NOAA

ERIE INTERNATIONAL AIRPORT, PA, United States (KERI) 42-05N 080-11W 222M
Sep 19, 2020 - 01:51 PM EDT / 2020.09.19 1751 UTC
Wind: from the NNE (020 degrees) at 12 MPH (10 KT):0
Visibility: 10 mile(s):0
Sky conditions: clear
Temperature: 62.1 F (16.7 C)
Dew Point: 36.0 F (2.2 C)
Relative Humidity: 37%
Pressure (altimeter): 30.4 in. Hg (1029 hPa)
Pressure tendency: 0.01 inches (0.5 hPa) lower than three hours ago
ob: KERI 191751Z 02010KT 10SM CLR 17/02 A3040 RMK AO2 SLP297 T01670022 10167 20078 58005
cycle: 18

Station Type Date Time Source
KERI TAF 2020/09/19 18:42 UTC NOAA

KERI 191739Z 1918/2018 02008KT P6SM SKC
FM200200 14005KT P6SM SKC
FM201600 04008KT P6SM SKC

Example: see airport list